FYKT

Keetmanshoop Airport

Keetmanshoop, Namibia
METAR FYKT 222100Z AUTO 00000KT //// // ////// 23/04 Q1019
Observed Flight Rules
Apr-22 @ 21:00 UTC (53 minutes ago)
Temperatures Readings
Current 23°C / 73°F
Dewpoint 4°C / 39°F
Humidity 29%
Altimeter 30.09" Hg
Pressure 1019 hPa
Elevation 1061
METAR FYKT 222100Z AUTO 00000KT //// // ////// 23/04 Q1019
Observed Flight Rules
Apr-22 @ 21:00 UTC
(53 minutes ago)
Temperature Dewpoint
23°C / 73°F 4°C / 39°F
Humidity Altimeter Pressure
29% 30.09" Hg 1019 hPa